Weather at Duncan Town Airport

Public forecast

Using degrees Celsius for public forecast. Weather courtesy of forecast.io.

Closest aviation weather report (METAR) to Duncan Town Airport

Closest report is Frank Pais International Airport, 90.0 nm (166.7 km) SSW.

2023/02/01 04:50 (retrieved 35 minutes ago)

MUHG 010450Z 04008KT CAVOK 22/19 Q1020

Closest aviation forecast (TAF) to Duncan Town Airport

Forecast is more than 6 hours old.

Closest forecast is Jardines Del Rey Airport, 145.3 nm (269.1 km) W.

2023/01/31 18:03 (retrieved 11 hours ago)

TAF MUCC 311700Z 3118/0118 09012KT 9000 SCT020